Time;durP1;ratioP1;P1;durP2;ratioP2;P2;SDS_P1;SDS_P2;PMS_P1;PMS_P2;Temp;Humidity;BMP_temperature;BMP_pressure;BME280_temperature;BME280_humidity;BME280_pressure;Samples;Min_cycle;Max_cycle;Signal;HPM_P1;HPM_P2
2023/09/23 00:00:08;;;;;;;98.10;93.57;;;;;;;17.49;57.59;100617.38;4971995;28;20049;-67
2023/09/23 00:02:33;;;;;;;98.95;94.25;;;;;;;17.47;57.60;100623.13;4961996;28;20045;-67
2023/09/23 00:04:59;;;;;;;96.03;91.53;;;;;;;17.47;57.36;100627.75;4960705;28;20109;-67
2023/09/23 00:07:24;;;;;;;97.85;93.28;;;;;;;17.46;57.21;100628.84;4966252;28;20464;-67
2023/09/23 00:09:54;;;;;;;93.63;89.50;;;;;;;17.44;57.44;100629.16;4964410;28;20094;-66
2023/09/23 00:12:19;;;;;;;96.80;92.45;;;;;;;17.43;57.12;100632.16;4956422;28;20439;-68
2023/09/23 00:14:45;;;;;;;99.63;94.82;;;;;;;17.42;57.44;100630.56;4956077;28;20089;-67
2023/09/23 00:17:10;;;;;;;98.43;93.82;;;;;;;17.40;58.04;100635.50;4971189;28;20039;-67
2023/09/23 00:19:35;;;;;;;99.53;94.93;;;;;;;17.38;57.16;100635.78;4967307;28;20092;-66
2023/09/23 00:22:02;;;;;;;96.82;92.30;;;;;;;17.37;57.56;100628.69;4966916;28;20043;-66
2023/09/23 00:24:27;;;;;;;99.40;94.72;;;;;;;17.37;57.57;100631.44;4962428;28;20062;-67
2023/09/23 00:26:59;;;;;;;97.13;92.63;;;;;;;17.35;57.49;100636.34;4971309;28;20049;-66
2023/09/23 00:29:28;;;;;;;95.63;91.00;;;;;;;17.35;57.40;100644.56;4959146;28;20049;-69
2023/09/23 00:31:54;;;;;;;95.18;90.78;;;;;;;17.33;57.27;100646.75;4969654;28;20049;-67
2023/09/23 00:34:20;;;;;;;93.03;87.50;;;;;;;17.32;57.27;100649.78;4960493;28;20428;-66
2023/09/23 00:36:46;;;;;;;94.55;90.25;;;;;;;17.30;57.62;100648.16;4962407;28;19930;-66
2023/09/23 00:39:13;;;;;;;94.30;89.93;;;;;;;17.29;57.55;100643.00;4966986;28;20493;-67
2023/09/23 00:41:41;;;;;;;94.97;90.47;;;;;;;17.28;57.05;100644.88;4959836;28;20173;-68
2023/09/23 00:44:06;;;;;;;95.38;90.82;;;;;;;17.27;56.99;100640.53;4961754;28;20046;-68
2023/09/23 00:46:35;;;;;;;94.85;90.55;;;;;;;17.26;57.60;100644.38;4955614;28;20050;-67
2023/09/23 00:49:01;;;;;;;95.75;91.15;;;;;;;17.24;57.53;100654.78;4969184;28;20395;-67
2023/09/23 00:51:29;;;;;;;92.32;88.00;;;;;;;17.23;57.14;100649.59;4970745;28;20486;-69
2023/09/23 00:53:54;;;;;;;93.22;88.68;;;;;;;17.21;57.36;100657.25;4961457;28;20055;-67
2023/09/23 00:56:23;;;;;;;95.63;91.30;;;;;;;17.19;57.44;100646.66;4968329;28;20047;-67
2023/09/23 00:58:50;;;;;;;93.50;89.32;;;;;;;17.20;57.25;100648.25;4970943;28;20065;-67
2023/09/23 01:01:19;;;;;;;94.60;90.30;;;;;;;17.18;57.27;100666.84;4960839;28;20095;-67
2023/09/23 01:03:45;;;;;;;95.10;90.63;;;;;;;17.17;57.29;100665.22;4966058;28;20062;-67
2023/09/23 01:06:18;;;;;;;94.88;90.40;;;;;;;17.16;57.44;100670.97;4962901;28;20050;-67
2023/09/23 01:08:46;;;;;;;93.28;88.90;;;;;;;17.14;57.61;100665.81;4964175;28;20038;-67
2023/09/23 01:11:12;;;;;;;92.97;88.57;;;;;;;17.13;57.40;100668.81;4969418;28;20119;-67
2023/09/23 01:13:37;;;;;;;92.75;88.38;;;;;;;17.12;56.96;100668.00;4967239;28;20075;-67
2023/09/23 01:16:13;;;;;;;94.93;90.15;;;;;;;17.11;57.26;100666.38;4960033;28;20061;-67
2023/09/23 01:18:40;;;;;;;94.43;89.63;;;;;;;17.10;57.49;100678.38;4966972;28;20442;-67
2023/09/23 01:21:08;;;;;;;93.00;88.70;;;;;;;17.09;57.18;100674.03;4971626;28;20043;-67
2023/09/23 01:23:38;;;;;;;92.57;88.30;;;;;;;17.08;57.53;100675.97;4965717;28;20538;-67
2023/09/23 01:26:06;;;;;;;91.68;87.30;;;;;;;17.07;57.54;100682.50;4956847;28;20043;-67
2023/09/23 01:28:32;;;;;;;96.22;91.43;;;;;;;17.06;57.21;100678.16;4957713;28;20050;-67
2023/09/23 01:31:00;;;;;;;89.72;85.63;;;;;;;17.05;57.55;100681.97;4967454;28;20150;-67
2023/09/23 01:33:26;;;;;;;92.50;88.20;;;;;;;17.04;57.54;100679.56;4966679;28;20089;-67
2023/09/23 01:35:55;;;;;;;91.28;87.22;;;;;;;17.03;57.27;100694.28;4955067;28;20037;-67
2023/09/23 01:38:20;;;;;;;;;;;;;;;17.02;57.49;100692.66;4961453;28;20134;-67
2023/09/23 01:40:47;;;;;;;90.00;85.88;;;;;;;16.97;57.37;100692.72;4969033;28;20021;-67
2023/09/23 01:43:12;;;;;;;88.95;84.45;;;;;;;16.96;57.48;100701.97;4967533;28;20031;-67
2023/09/23 01:45:38;;;;;;;94.88;90.38;;;;;;;16.94;57.64;100699.56;4954435;28;20050;-67
2023/09/23 01:48:04;;;;;;;91.82;87.15;;;;;;;16.94;57.38;100702.28;4969475;28;20062;-67
2023/09/23 01:50:29;;;;;;;90.63;86.43;;;;;;;16.93;57.75;100699.81;4960505;28;20035;-68
2023/09/23 01:53:00;;;;;;;90.60;86.57;;;;;;;16.93;57.68;100699.81;4968701;28;20066;-67
2023/09/23 01:55:26;;;;;;;91.63;87.43;;;;;;;16.92;57.28;100709.13;4954964;28;20118;-67
2023/09/23 01:57:51;;;;;;;91.30;87.10;;;;;;;16.91;57.37;100696.56;4962880;28;20845;-67
2023/09/23 02:00:17;;;;;;;91.15;86.65;;;;;;;16.90;57.79;100703.13;4956816;28;20547;-67
2023/09/23 02:02:48;;;;;;;88.93;84.93;;;;;;;16.89;57.30;100710.50;4968280;28;20034;-67
2023/09/23 02:05:14;;;;;;;89.68;85.32;;;;;;;16.87;57.31;100713.50;4968796;28;20047;-67
2023/09/23 02:07:39;;;;;;;89.50;85.40;;;;;;;16.87;57.33;100713.50;4964425;28;20570;-66
2023/09/23 02:10:09;;;;;;;91.50;87.05;;;;;;;16.87;57.65;100724.44;4959363;28;20542;-67
2023/09/23 02:12:35;;;;;;;89.90;85.88;;;;;;;16.87;57.60;100727.16;4969236;28;20038;-69
2023/09/23 02:15:00;;;;;;;87.00;83.20;;;;;;;16.86;57.18;100728.25;4969513;28;20526;-67
2023/09/23 02:17:25;;;;;;;90.47;86.25;;;;;;;16.84;57.77;100718.75;4964085;28;20043;-67
2023/09/23 02:19:53;;;;;;;94.30;89.63;;;;;;;16.84;57.83;100738.63;4960931;28;20058;-67
2023/09/23 02:22:19;;;;;;;88.30;84.23;;;;;;;16.83;57.48;100714.38;4966173;28;20184;-66
2023/09/23 02:24:45;;;;;;;89.45;85.35;;;;;;;16.81;57.69;100731.03;4959436;28;20059;-67
2023/09/23 02:27:10;;;;;;;88.38;84.40;;;;;;;16.80;57.46;100726.66;4969092;28;20046;-67
2023/09/23 02:29:36;;;;;;;89.75;85.70;;;;;;;16.80;57.46;100731.31;4972959;28;20045;-69
2023/09/23 02:32:02;;;;;;;90.15;85.53;;;;;;;16.79;57.46;100732.41;4969293;28;20027;-67
2023/09/23 02:34:30;;;;;;;87.78;83.88;;;;;;;16.78;57.74;100731.63;4967276;28;20055;-67
2023/09/23 02:36:56;;;;;;;89.25;85.15;;;;;;;16.77;57.43;100742.75;4963257;28;20314;-67
2023/09/23 02:39:21;;;;;;;88.47;83.90;;;;;;;16.76;57.47;100741.16;4962947;28;20058;-67
2023/09/23 02:41:48;;;;;;;88.78;84.68;;;;;;;16.74;57.38;100752.31;4964399;28;20046;-67
2023/09/23 02:44:22;;;;;;;88.75;84.75;;;;;;;16.75;57.27;100750.41;4957844;28;20039;-66
2023/09/23 02:46:49;;;;;;;86.82;82.82;;;;;;;16.73;57.51;100747.16;4958074;28;20039;-66
2023/09/23 02:49:15;;;;;;;87.65;83.07;;;;;;;16.72;57.43;100753.72;4957799;28;20063;-67
2023/09/23 02:51:42;;;;;;;88.68;84.65;;;;;;;16.71;57.53;100747.44;4964832;28;20031;-67
2023/09/23 02:54:09;;;;;;;88.05;83.95;;;;;;;16.71;57.40;100752.09;4953416;28;20062;-67
2023/09/23 02:56:35;;;;;;;88.00;83.78;;;;;;;16.69;57.53;100763.28;4953622;28;20498;-67
2023/09/23 02:59:04;;;;;;;86.50;82.60;;;;;;;16.69;57.45;100765.19;4968107;28;20106;-66
2023/09/23 03:01:30;;;;;;;87.35;83.38;;;;;;;16.67;57.43;100774.44;4960958;28;20089;-67
2023/09/23 03:03:56;;;;;;;88.20;84.20;;;;;;;16.67;57.21;100769.00;4970842;28;20030;-67
2023/09/23 03:06:22;;;;;;;86.93;83.03;;;;;;;16.65;57.76;100778.56;4969948;28;20371;-66
2023/09/23 03:08:53;;;;;;;89.93;85.72;;;;;;;16.64;57.59;100780.47;4963778;28;20073;-67
2023/09/23 03:11:26;;;;;;;86.38;82.55;;;;;;;16.62;57.67;100774.50;4952429;29;20035;-66
2023/09/23 03:13:52;;;;;;;87.65;83.32;;;;;;;16.62;57.51;100781.84;4960464;28;20419;-67
2023/09/23 03:16:28;;;;;;;88.28;84.18;;;;;;;16.60;57.31;100781.31;4954333;28;20268;-67
2023/09/23 03:19:09;;;;;;;89.45;84.60;;;;;;;16.59;57.28;100777.78;4963516;28;20439;-67
2023/09/23 03:21:35;;;;;;;83.50;79.75;;;;;;;16.57;57.57;100784.63;4965484;28;20073;-67
2023/09/23 03:24:00;;;;;;;87.43;83.03;;;;;;;16.56;57.52;100778.34;4955800;28;20058;-67
2023/09/23 03:26:26;;;;;;;88.75;84.53;;;;;;;16.55;57.70;100789.53;4954321;28;20070;-67
2023/09/23 03:28:51;;;;;;;88.03;84.00;;;;;;;16.55;57.38;100792.25;4969141;28;20085;-68
2023/09/23 03:31:17;;;;;;;85.30;81.53;;;;;;;16.53;57.42;100792.56;4968659;28;20118;-67
2023/09/23 03:33:42;;;;;;;84.25;80.50;;;;;;;16.53;57.27;100789.00;4959105;28;20230;-69
2023/09/23 03:36:15;;;;;;;86.57;82.28;;;;;;;16.51;57.38;100786.56;4954902;28;20043;-67
2023/09/23 03:38:41;;;;;;;86.25;82.35;;;;;;;16.50;57.38;100795.81;4967503;28;20042;-67
2023/09/23 03:41:11;;;;;;;84.53;80.72;;;;;;;16.50;57.64;100803.19;4960389;28;20381;-67
2023/09/23 03:43:37;;;;;;;86.97;83.18;;;;;;;16.50;57.41;100800.47;4968233;28;20137;-68
2023/09/23 03:46:09;;;;;;;86.65;81.93;;;;;;;16.49;57.37;100804.31;4964599;28;20059;-67
2023/09/23 03:48:35;;;;;;;86.78;82.88;;;;;;;16.49;57.49;100809.75;4955228;28;20117;-67
2023/09/23 03:51:06;;;;;;;87.88;83.60;;;;;;;16.48;57.75;100802.66;4965882;28;20049;-67
2023/09/23 03:53:32;;;;;;;87.75;83.55;;;;;;;16.47;57.55;100809.22;4964344;28;20514;-67
2023/09/23 03:56:00;;;;;;;85.82;81.80;;;;;;;16.45;57.70;100809.47;4952062;28;20091;-67
2023/09/23 03:58:27;;;;;;;85.18;81.18;;;;;;;16.44;57.47;100811.41;4967400;28;20035;-67
2023/09/23 04:00:56;;;;;;;84.35;80.47;;;;;;;16.43;57.59;100809.78;4969105;28;20506;-67
2023/09/23 04:03:22;;;;;;;83.43;79.70;;;;;;;16.42;57.80;100813.59;4961163;28;20447;-67
2023/09/23 04:05:57;;;;;;;86.20;82.30;;;;;;;16.42;57.41;100816.31;4952467;28;20041;-68
2023/09/23 04:08:23;;;;;;;84.90;81.07;;;;;;;16.40;57.53;100818.53;4963982;28;20138;-68
2023/09/23 04:10:49;;;;;;;84.30;80.47;;;;;;;16.38;57.48;100820.72;4957511;28;20046;-68
2023/09/23 04:13:15;;;;;;;83.32;79.63;;;;;;;16.39;57.40;100827.78;4965554;28;20101;-67
2023/09/23 04:15:41;;;;;;;81.15;77.47;;;;;;;16.39;57.36;100826.97;4952950;28;20035;-67
2023/09/23 04:18:06;;;;;;;81.65;77.90;;;;;;;16.37;57.35;100827.25;4955910;28;20508;-67
2023/09/23 04:20:32;;;;;;;83.43;79.53;;;;;;;16.36;57.65;100827.53;4959983;28;20035;-67
2023/09/23 04:22:57;;;;;;;84.45;80.25;;;;;;;16.35;57.35;100826.69;4955954;28;20046;-68
2023/09/23 04:25:23;;;;;;;81.40;77.70;;;;;;;16.35;57.61;100834.88;4968175;28;20077;-67
2023/09/23 04:27:52;;;;;;;82.32;78.22;;;;;;;16.34;57.20;100838.72;4962391;28;20046;-70
2023/09/23 04:30:17;;;;;;;;;;;;;;;16.33;57.83;100842.53;4963115;28;20042;-67
2023/09/23 04:32:42;;;;;;;76.32;72.72;;;;;;;16.31;57.61;100849.38;4968205;28;19914;-67
2023/09/23 04:35:14;;;;;;;81.40;77.70;;;;;;;16.29;57.35;100846.91;4965123;28;20066;-67
2023/09/23 04:37:39;;;;;;;77.97;74.22;;;;;;;16.28;57.39;100858.91;4962305;28;20057;-67
2023/09/23 04:40:10;;;;;;;81.13;77.30;;;;;;;16.28;57.95;100858.09;4955955;28;20384;-67
2023/09/23 04:42:45;;;;;;;81.82;77.50;;;;;;;16.26;57.59;100860.28;4967126;28;20042;-67
2023/09/23 04:45:11;;;;;;;82.22;78.22;;;;;;;16.26;57.52;100860.28;4964067;28;20054;-67
2023/09/23 04:47:37;;;;;;;78.13;74.50;;;;;;;16.25;57.45;100875.81;4962800;28;20547;-67
2023/09/23 04:50:04;;;;;;;81.60;77.80;;;;;;;16.26;57.89;100876.66;4962526;28;20443;-68
2023/09/23 04:52:33;;;;;;;80.07;76.47;;;;;;;16.24;57.60;100874.19;4965284;28;20162;-67
2023/09/23 04:54:59;;;;;;;87.18;82.95;;;;;;;16.25;57.93;100878.53;4963999;28;20082;-67
2023/09/23 04:57:24;;;;;;;83.50;79.78;;;;;;;16.23;57.77;100873.38;4959299;28;20062;-69
2023/09/23 04:59:52;;;;;;;82.40;78.30;;;;;;;16.22;57.56;100888.06;4963610;28;20087;-67
2023/09/23 05:02:18;;;;;;;81.85;78.15;;;;;;;16.21;57.55;100886.47;4964537;28;20062;-67
2023/09/23 05:04:48;;;;;;;83.35;79.65;;;;;;;16.22;57.62;100892.72;4958396;28;20110;-67
2023/09/23 05:07:14;;;;;;;78.63;75.13;;;;;;;16.20;57.74;100889.44;4962883;28;20030;-67
2023/09/23 05:09:40;;;;;;;82.97;77.97;;;;;;;16.20;57.42;100903.06;4972599;28;20034;-67
2023/09/23 05:12:08;;;;;;;83.32;79.43;;;;;;;16.19;57.72;100898.72;4963046;28;20035;-67
2023/09/23 05:14:34;;;;;;;80.53;76.97;;;;;;;16.19;57.44;100898.72;4965491;28;20040;-67
2023/09/23 05:16:59;;;;;;;85.82;81.30;;;;;;;16.17;57.57;100901.72;4962064;28;20077;-67
2023/09/23 05:19:27;;;;;;;82.95;79.20;;;;;;;16.16;57.73;100911.00;4957207;28;20039;-69
2023/09/23 05:21:53;;;;;;;84.63;80.68;;;;;;;16.16;57.76;100911.00;4971877;28;20035;-67
2023/09/23 05:24:19;;;;;;;80.25;76.65;;;;;;;16.14;57.85;100915.91;4967131;28;20045;-68
2023/09/23 05:26:44;;;;;;;79.45;75.80;;;;;;;16.14;57.48;100912.38;4973315;28;20035;-67
2023/09/23 05:29:10;;;;;;;80.63;76.93;;;;;;;16.14;57.64;100928.72;4955212;28;20033;-67
2023/09/23 05:31:38;;;;;;;82.70;78.90;;;;;;;16.12;57.66;100920.00;4954896;28;20479;-68
2023/09/23 05:34:04;;;;;;;82.93;79.07;;;;;;;16.11;57.63;100926.56;4967603;28;20031;-67
2023/09/23 05:36:30;;;;;;;82.15;78.25;;;;;;;16.11;57.76;100923.81;4954724;28;20099;-68
2023/09/23 05:38:56;;;;;;;79.00;75.32;;;;;;;16.11;57.65;100932.00;4960802;28;20028;-70
2023/09/23 05:41:23;;;;;;;81.43;77.80;;;;;;;16.09;57.86;100939.63;4958773;28;20106;-67
2023/09/23 05:43:51;;;;;;;79.18;75.68;;;;;;;16.08;57.81;100943.47;4967618;28;20026;-67
2023/09/23 05:46:17;;;;;;;82.47;78.75;;;;;;;16.06;57.87;100945.63;4968334;28;20126;-68
2023/09/23 05:48:42;;;;;;;80.93;77.28;;;;;;;16.06;57.61;100959.25;4965610;28;20126;-67
2023/09/23 05:51:08;;;;;;;81.32;77.40;;;;;;;16.06;57.59;100967.44;4969524;28;20049;-67
2023/09/23 05:53:34;;;;;;;81.05;77.25;;;;;;;16.05;57.85;100971.22;4972044;28;20089;-67
2023/09/23 05:56:00;;;;;;;81.78;78.13;;;;;;;16.05;57.77;100968.50;4967782;28;20110;-68
2023/09/23 05:58:25;;;;;;;79.80;75.82;;;;;;;16.04;57.61;100966.88;4962513;28;20039;-67
2023/09/23 06:00:51;;;;;;;80.38;76.60;;;;;;;16.02;57.90;100975.31;4966565;28;20475;-67
2023/09/23 06:03:17;;;;;;;80.90;77.22;;;;;;;16.00;57.58;100981.06;4954916;28;20822;-67
2023/09/23 06:05:43;;;;;;;77.80;74.22;;;;;;;16.01;57.72;100984.59;4968267;28;20491;-67
2023/09/23 06:08:10;;;;;;;80.57;76.78;;;;;;;16.00;57.83;100997.41;4958685;28;20484;-67
2023/09/23 06:10:36;;;;;;;76.40;72.90;;;;;;;15.99;57.60;100995.75;4955832;28;20039;-67
2023/09/23 06:13:02;;;;;;;80.10;75.80;;;;;;;15.99;57.54;101000.41;4956772;28;20046;-67
2023/09/23 06:15:28;;;;;;;82.25;78.05;;;;;;;15.98;57.44;100996.03;4958630;28;20039;-66
2023/09/23 06:17:54;;;;;;;75.43;72.03;;;;;;;15.97;57.73;101006.09;4971263;28;20050;-67
2023/09/23 06:20:20;;;;;;;80.45;76.72;;;;;;;15.98;57.90;100996.03;4961946;28;20039;-67
2023/09/23 06:22:46;;;;;;;76.40;72.80;;;;;;;15.97;57.80;101003.38;4965980;28;20032;-67
2023/09/23 06:25:11;;;;;;;77.18;73.47;;;;;;;15.97;57.66;101008.00;4953627;28;20043;-67
2023/09/23 06:27:37;;;;;;;79.32;75.53;;;;;;;15.96;57.54;101009.94;4966131;28;20031;-67
2023/09/23 06:30:02;;;;;;;76.18;72.70;;;;;;;15.95;57.60;101019.19;4958753;28;20035;-69
2023/09/23 06:32:28;;;;;;;80.03;76.22;;;;;;;15.95;57.61;101019.19;4970021;28;20062;-67
2023/09/23 06:34:54;;;;;;;76.43;72.53;;;;;;;15.94;57.86;101024.91;4967371;28;20057;-67
2023/09/23 06:37:19;;;;;;;78.40;74.63;;;;;;;15.94;57.77;101038.53;4971136;28;20467;-67
2023/09/23 06:39:45;;;;;;;74.97;71.47;;;;;;;15.93;57.51;101035.00;4955362;28;20383;-67
2023/09/23 06:42:11;;;;;;;77.03;73.32;;;;;;;15.91;57.59;101039.91;4966015;28;20043;-67
2023/09/23 06:44:36;;;;;;;76.60;72.97;;;;;;;15.89;57.61;101038.53;4967666;28;20499;-67
2023/09/23 06:47:01;;;;;;;77.68;74.15;;;;;;;15.89;57.66;101044.78;4957846;28;20051;-67
2023/09/23 06:49:27;;;;;;;82.43;78.63;;;;;;;15.89;57.76;101046.69;4965927;28;20030;-69
2023/09/23 06:51:52;;;;;;;75.20;71.80;;;;;;;15.88;57.98;101050.53;4969765;28;20133;-67
2023/09/23 06:54:18;;;;;;;77.85;74.15;;;;;;;15.86;57.54;101053.50;4965325;28;20494;-68
2023/09/23 06:56:43;;;;;;;76.88;72.97;;;;;;;15.86;57.57;101060.88;4957772;28;20117;-67
2023/09/23 06:59:08;;;;;;;81.72;77.63;;;;;;;15.86;57.54;101064.41;4967163;28;20070;-67
2023/09/23 07:01:35;;;;;;;77.07;73.45;;;;;;;15.85;57.83;101068.22;4957696;28;20034;-67
2023/09/23 07:04:00;;;;;;;76.18;72.28;;;;;;;15.84;57.85;101072.03;4969103;28;20501;-67
2023/09/23 07:06:26;;;;;;;76.70;73.13;;;;;;;15.85;57.89;101076.41;4970934;28;20550;-67
2023/09/23 07:08:51;;;;;;;76.05;72.55;;;;;;;15.85;57.74;101081.00;4962698;28;20115;-67
2023/09/23 07:11:17;;;;;;;80.63;76.88;;;;;;;15.84;57.81;101080.19;4968844;28;20487;-67
2023/09/23 07:13:42;;;;;;;79.22;75.53;;;;;;;15.84;57.72;101079.38;4967438;28;20391;-67
2023/09/23 07:16:14;;;;;;;74.03;70.68;;;;;;;15.85;57.50;101091.91;4961462;28;20125;-69
2023/09/23 07:18:41;;;;;;;73.75;70.25;;;;;;;15.84;58.04;101091.09;4960788;28;20031;-67
2023/09/23 07:21:06;;;;;;;78.93;75.22;;;;;;;15.84;57.69;101091.09;4964041;28;20479;-69
2023/09/23 07:23:32;;;;;;;77.25;73.80;;;;;;;15.84;57.52;101090.28;4965471;28;20065;-67
2023/09/23 07:25:59;;;;;;;75.15;71.75;;;;;;;15.83;57.66;101097.63;4970977;28;20050;-67
2023/09/23 07:28:25;;;;;;;78.90;75.30;;;;;;;15.83;57.99;101097.63;4965210;28;20487;-67
2023/09/23 07:30:50;;;;;;;73.85;70.45;;;;;;;15.82;57.83;101095.97;4967793;28;20085;-68
2023/09/23 07:33:16;;;;;;;75.68;71.65;;;;;;;15.82;58.09;101106.06;4966747;28;20387;-68
2023/09/23 07:35:43;;;;;;;73.57;70.28;;;;;;;15.81;57.94;101099.00;4970817;28;20073;-68
2023/09/23 07:38:08;;;;;;;77.22;73.43;;;;;;;15.80;57.87;101103.63;4963050;28;20053;-70
2023/09/23 07:40:39;;;;;;;74.90;71.40;;;;;;;15.80;57.81;101109.09;4963095;28;20031;-68
2023/09/23 07:43:04;;;;;;;77.45;73.85;;;;;;;15.79;57.96;101121.03;4955500;28;20074;-68
2023/09/23 07:45:30;;;;;;;77.82;74.22;;;;;;;15.79;58.01;101124.59;4955748;28;20506;-67
2023/09/23 07:47:55;;;;;;;74.45;70.85;;;;;;;15.81;58.09;101129.78;4966730;28;20118;-66
2023/09/23 07:50:21;;;;;;;77.30;73.70;;;;;;;15.82;57.99;101141.47;4966222;28;20058;-68
2023/09/23 07:52:47;;;;;;;71.65;68.25;;;;;;;15.81;57.82;101140.66;4953201;28;20039;-67
2023/09/23 07:55:13;;;;;;;76.10;71.88;;;;;;;15.81;58.07;101145.31;4961480;28;20055;-67
2023/09/23 07:57:39;;;;;;;76.93;73.43;;;;;;;15.82;58.04;101149.66;4966142;28;20414;-67
2023/09/23 08:00:09;;;;;;;70.90;67.60;;;;;;;15.83;58.07;101159.47;4968878;28;20483;-67
2023/09/23 08:02:35;;;;;;;73.35;69.88;;;;;;;15.83;57.87;101164.94;4956054;28;20131;-67
2023/09/23 08:05:03;;;;;;;74.70;71.15;;;;;;;15.83;57.95;101159.47;4966949;28;20126;-67
2023/09/23 08:07:32;;;;;;;73.80;70.18;;;;;;;15.84;57.67;101172.81;4962464;28;20034;-67
2023/09/23 08:09:58;;;;;;;75.30;71.72;;;;;;;15.84;58.06;101178.25;4961835;28;20043;-67
2023/09/23 08:12:24;;;;;;;76.22;72.45;;;;;;;15.85;57.83;101179.91;4961545;28;20054;-67
2023/09/23 08:14:50;;;;;;;78.13;74.53;;;;;;;15.87;58.21;101182.34;4966885;28;20035;-68
2023/09/23 08:17:16;;;;;;;74.63;70.88;;;;;;;15.88;57.64;101192.19;4969326;28;20574;-67
2023/09/23 08:19:41;;;;;;;75.35;71.60;;;;;;;15.88;58.23;101198.44;4964167;28;20118;-67
2023/09/23 08:22:07;;;;;;;77.05;72.88;;;;;;;15.88;58.23;101195.72;4973610;28;20039;-69
2023/09/23 08:24:32;;;;;;;75.70;71.90;;;;;;;15.89;58.12;101201.97;4963157;28;20043;-68
2023/09/23 08:26:58;;;;;;;73.78;70.28;;;;;;;15.90;58.26;101206.34;4973219;28;20043;-67
2023/09/23 08:29:24;;;;;;;76.07;72.47;;;;;;;15.90;58.02;101209.91;4962647;28;20034;-68
2023/09/23 08:31:49;;;;;;;76.65;72.75;;;;;;;15.90;58.01;101217.22;4960792;28;20035;-68
2023/09/23 08:34:17;;;;;;;73.50;70.00;;;;;;;15.90;57.95;101215.34;4967409;28;20035;-70
2023/09/23 08:36:42;;;;;;;75.13;71.57;;;;;;;15.92;58.51;101220.50;4958917;28;20134;-69
2023/09/23 08:39:09;;;;;;;72.53;69.03;;;;;;;15.92;58.35;101224.06;4963820;28;20277;-70
2023/09/23 08:41:36;;;;;;;75.93;71.97;;;;;;;15.93;58.42;101231.16;4961349;28;20558;-68
2023/09/23 08:44:05;;;;;;;76.82;72.78;;;;;;;15.94;58.43;101234.69;4972183;28;20057;-68
2023/09/23 08:46:31;;;;;;;77.18;73.13;;;;;;;15.96;58.23;101238.78;4966362;28;20059;-67
2023/09/23 08:48:59;;;;;;;76.15;72.55;;;;;;;15.96;58.37;101238.78;4965428;28;20035;-67
2023/09/23 08:51:25;;;;;;;76.53;72.78;;;;;;;15.97;58.46;101237.69;4970400;28;20035;-68
2023/09/23 08:53:53;;;;;;;76.45;72.88;;;;;;;15.98;58.50;101241.25;4969829;28;20041;-68
2023/09/23 08:56:20;;;;;;;79.38;75.68;;;;;;;16.00;58.35;101250.81;4968217;28;20061;-70
2023/09/23 08:58:48;;;;;;;75.43;71.82;;;;;;;16.02;58.33;101253.25;4966628;28;20390;-68
2023/09/23 09:01:14;;;;;;;76.10;72.00;;;;;;;16.01;58.67;101254.34;4968339;28;20035;-68
2023/09/23 09:03:39;;;;;;;75.90;72.38;;;;;;;16.02;58.75;101253.25;4970335;28;20062;-68
2023/09/23 09:06:15;;;;;;;76.57;73.07;;;;;;;16.04;58.48;101269.34;4966761;28;20030;-68
2023/09/23 09:08:42;;;;;;;79.65;75.97;;;;;;;16.05;58.53;101262.78;4965477;28;20041;-69
2023/09/23 09:11:08;;;;;;;79.03;75.35;;;;;;;16.05;58.76;101268.25;4967218;28;20567;-69
2023/09/23 09:13:35;;;;;;;76.35;72.68;;;;;;;16.05;58.77;101273.69;4978744;28;20046;-69
2023/09/23 09:16:05;;;;;;;72.90;69.18;;;;;;;16.07;58.87;101274.25;4975279;28;20027;-68
2023/09/23 09:18:30;;;;;;;79.43;75.78;;;;;;;16.08;58.90;101278.63;4960209;28;20046;-68
2023/09/23 09:20:56;;;;;;;76.13;72.53;;;;;;;16.10;58.69;101279.16;4955015;28;20388;-70
2023/09/23 09:23:30;;;;;;;78.40;74.57;;;;;;;16.12;58.71;101274.28;4968160;28;20471;-86
2023/09/23 09:25:56;;;;;;;80.18;75.75;;;;;;;16.14;59.33;101274.84;4973212;28;20039;-87
2023/09/23 09:28:21;;;;;;;79.40;75.65;;;;;;;16.14;58.76;101288.47;4970701;28;20053;-88
2023/09/23 09:30:57;;;;;;;76.75;72.88;;;;;;;16.16;59.16;101302.66;4974214;28;20039;-85
2023/09/23 09:33:28;;;;;;;75.05;70.85;;;;;;;16.16;59.20;101306.19;4955080;28;20377;-83
2023/09/23 09:35:55;;;;;;;79.72;75.93;;;;;;;16.17;59.59;101296.91;4983297;28;20049;-77
2023/09/23 09:38:22;;;;;;;76.78;72.90;;;;;;;16.18;59.52;101293.13;4970856;28;20035;-82
2023/09/23 09:40:50;;;;;;;75.97;72.07;;;;;;;16.21;59.76;101294.47;4972934;28;20090;-82
2023/09/23 09:43:16;;;;;;;81.07;77.18;;;;;;;16.26;59.85;101301.88;4972854;28;20027;-82
2023/09/23 09:45:44;;;;;;;82.20;78.30;;;;;;;16.28;59.60;101305.97;4966796;28;20035;-81
2023/09/23 09:48:11;;;;;;;80.15;76.03;;;;;;;16.32;59.78;101307.06;4967224;28;20042;-84
2023/09/23 09:50:43;;;;;;;80.82;76.63;;;;;;;16.35;60.25;101298.34;4957823;28;20062;-78
2023/09/23 09:53:08;;;;;;;79.20;75.05;;;;;;;16.38;60.26;101302.47;4965803;28;20042;-80
2023/09/23 09:55:35;;;;;;;83.80;79.75;;;;;;;16.41;60.15;101308.19;4972035;28;20447;-82
2023/09/23 09:58:01;;;;;;;78.93;75.38;;;;;;;16.43;60.43;101302.47;4970017;28;20090;-82
2023/09/23 10:00:35;;;;;;;81.60;77.70;;;;;;;16.46;60.52;101306.56;4938595;28;20031;-79
2023/09/23 10:03:06;;;;;;;80.68;76.93;;;;;;;16.48;60.68;101315.28;4958934;28;20392;-85
2023/09/23 10:05:44;;;;;;;79.43;75.63;;;;;;;16.50;60.91;101324.81;4954474;28;20039;-87
2023/09/23 10:08:15;;;;;;;81.93;78.07;;;;;;;16.53;60.65;101318.88;4955203;28;20399;-83
2023/09/23 10:10:48;;;;;;;81.85;77.65;;;;;;;16.56;60.55;101323.78;4972726;28;20038;-84
2023/09/23 10:13:24;;;;;;;80.53;76.82;;;;;;;16.61;60.58;101328.44;4963692;28;20031;-86
2023/09/23 10:16:05;;;;;;;83.03;78.55;;;;;;;16.63;60.64;101334.41;4957406;28;20051;-88
2023/09/23 10:18:39;;;;;;;82.65;78.55;;;;;;;16.66;60.48;101328.44;4968376;28;20079;-68
2023/09/23 10:21:05;;;;;;;80.97;76.82;;;;;;;16.70;60.34;101334.16;4969007;28;20035;-66
2023/09/23 10:23:40;;;;;;;84.47;79.55;;;;;;;16.74;60.37;101333.34;4969048;28;20031;-68
2023/09/23 10:26:18;;;;;;;81.88;77.75;;;;;;;16.78;60.26;101336.38;4957689;28;20126;-68
2023/09/23 10:28:54;;;;;;;86.77;82.37;;;;;;;16.82;60.60;101351.13;4959249;28;20503;-67
2023/09/23 10:31:25;;;;;;;82.82;78.85;;;;;;;16.84;60.64;101346.25;4955342;28;20393;-68
2023/09/23 10:33:51;;;;;;;86.22;81.80;;;;;;;16.86;60.29;101342.16;4970203;28;20069;-83
2023/09/23 10:36:21;;;;;;;84.40;80.22;;;;;;;16.89;60.92;101342.72;4970019;28;20126;-82
2023/09/23 10:38:47;;;;;;;88.70;84.05;;;;;;;16.91;60.67;101341.34;4941409;28;20047;-84
2023/09/23 10:41:12;;;;;;;83.00;78.18;;;;;;;16.94;61.21;101350.91;4969207;28;20089;-83
2023/09/23 10:43:37;;;;;;;84.07;79.95;;;;;;;16.96;60.79;101356.88;4952635;28;20129;-81
2023/09/23 10:46:03;;;;;;;86.25;82.30;;;;;;;17.00;61.02;101360.72;4935360;28;20035;-84
2023/09/23 10:48:32;;;;;;;81.15;77.25;;;;;;;17.02;61.46;101359.34;4968917;28;20047;-89
2023/09/23 10:51:00;;;;;;;83.45;79.20;;;;;;;17.04;61.11;101351.72;4966672;28;20031;-80
2023/09/23 10:53:27;;;;;;;84.32;80.40;;;;;;;17.07;61.16;101361.28;4969632;28;20031;-83
2023/09/23 10:55:53;;;;;;;83.90;80.00;;;;;;;17.12;61.36;101364.00;4952101;28;20077;-83
2023/09/23 10:58:19;;;;;;;85.05;80.95;;;;;;;17.15;61.16;101365.38;4965051;28;20475;-85
2023/09/23 11:00:45;;;;;;;85.10;80.82;;;;;;;17.19;61.69;101371.94;4968783;28;20042;-84
2023/09/23 11:03:14;;;;;;;87.03;82.90;;;;;;;17.21;61.70;101367.00;4968368;28;20034;-68
2023/09/23 11:05:43;;;;;;;86.15;82.03;;;;;;;17.25;61.30;101376.31;4962179;28;20097;-68
2023/09/23 11:08:10;;;;;;;85.32;81.53;;;;;;;17.26;61.43;101376.06;4963867;28;20121;-68